Terminal Aerodrome Forecast
Issued by NWS

Current Version | Previous Version | Graphics & Text | Print | Product List | Glossary On
Versions: 1 2 3 4 5 6 7 8 9 10 11 12 13 14 15 16 17 18 19 20 21 22 23 24 25 26 27
000
FTUS41 KILN 110800 AAA
TAFLUK
TAF AMD
KLUK 110856Z 1109/1206 00000KT P6SM SKC
      TEMPO 1109/1112 4SM BR
     FM111500 15004KT P6SM SCT060
     FM120100 00000KT P6SM SCT200=

USA.gov is the U.S. government's official web portal to all federal, state and local government web resources and services.